Station: ELLX - 22/02/2019 13:50Z (il y a 11 minutes)
ELLX 221350Z 05007KT 020V090 9999 FEW020 BKN025 12/06 Q1035 NOSIG
Vent du 050º - 7 kt (vent de direction variable de 020º à 090º)
Visibilité > 10 km
Nuages épars à 2000 pieds - Ciel 75% couvert à 2500 pieds
Température: +12ºC - Point de rosée: +06ºC - QNH: 1035 hPa
Pas de changement significatif prévu dans les 2 heures qui suivent l'observation